createdAt,value
2019-05-29T00:00:31.881Z,6.50
2019-05-29T00:01:35.393Z,6.22
2019-05-29T00:02:39.489Z,5.60
2019-05-29T00:03:42.946Z,5.70
2019-05-29T00:04:47.072Z,5.47
2019-05-29T00:05:50.586Z,5.03
2019-05-29T00:06:54.687Z,6.10
2019-05-29T00:07:58.213Z,6.33
2019-05-29T00:09:02.241Z,6.55
2019-05-29T00:10:10.371Z,5.60
2019-05-29T00:11:14.548Z,6.28
2019-05-29T00:12:20.132Z,6.40
2019-05-29T00:13:23.778Z,5.87
2019-05-29T00:14:27.842Z,6.03
2019-05-29T00:15:32.014Z,5.80
2019-05-29T00:16:35.536Z,5.90
2019-05-29T00:17:39.573Z,6.72
2019-05-29T00:18:43.090Z,5.53
2019-05-29T00:19:47.161Z,4.53
2019-05-29T00:20:50.621Z,5.03
2019-05-29T00:21:54.729Z,6.12
2019-05-29T00:22:58.171Z,6.22
2019-05-29T00:24:02.200Z,5.95
2019-05-29T00:25:06.632Z,5.60
2019-05-29T00:26:10.798Z,5.55
2019-05-29T00:27:15.537Z,7.15
2019-05-29T00:28:19.728Z,7.05
2019-05-29T00:29:23.242Z,6.08
2019-05-29T00:30:27.514Z,6.00
2019-05-29T00:31:31.069Z,5.40
2019-05-29T00:32:35.175Z,6.20
2019-05-29T00:33:38.747Z,5.90
2019-05-29T00:34:42.914Z,6.12
2019-05-29T00:35:46.523Z,5.80
2019-05-29T00:36:50.561Z,5.00
2019-05-29T00:37:54.065Z,6.47
2019-05-29T00:38:58.174Z,5.30
2019-05-29T00:40:01.652Z,5.22
2019-05-29T00:41:06.743Z,5.90
2019-05-29T00:42:11.081Z,5.65
2019-05-29T00:43:15.533Z,5.47
2019-05-29T00:44:33.536Z,5.15
2019-05-29T00:45:26.979Z,5.20
2019-05-29T00:46:30.488Z,6.00
2019-05-29T00:47:34.589Z,6.10
2019-05-29T00:48:38.265Z,5.90
2019-05-29T00:49:42.294Z,6.12
2019-05-29T00:50:45.769Z,5.55
2019-05-29T00:51:49.880Z,5.30
2019-05-29T00:52:53.465Z,4.70
2019-05-29T00:53:57.569Z,5.40
2019-05-29T00:55:01.010Z,5.83
2019-05-29T00:56:05.196Z,5.47
2019-05-29T00:57:08.772Z,5.70
2019-05-29T00:58:12.880Z,5.40
2019-05-29T00:59:17.373Z,5.47
2019-05-29T01:00:21.680Z,5.45
2019-05-29T01:01:25.209Z,5.30
2019-05-29T01:02:29.252Z,5.53
2019-05-29T01:03:32.756Z,4.92
2019-05-29T01:04:36.860Z,4.80
2019-05-29T01:05:40.378Z,5.10
2019-05-29T01:06:44.429Z,5.15
2019-05-29T01:07:47.942Z,4.95
2019-05-29T01:08:52.059Z,4.75
2019-05-29T01:09:55.493Z,4.30
2019-05-29T01:10:59.596Z,4.90
2019-05-29T01:12:03.212Z,5.05
2019-05-29T01:13:07.430Z,4.58
2019-05-29T01:14:11.070Z,5.28
2019-05-29T01:15:15.787Z,5.10
2019-05-29T01:16:19.631Z,4.55
2019-05-29T01:17:23.724Z,4.50
2019-05-29T01:18:27.182Z,4.85
2019-05-29T01:19:31.324Z,4.90
2019-05-29T01:20:34.958Z,4.65
2019-05-29T01:21:39.073Z,4.55
2019-05-29T01:22:42.534Z,4.40
2019-05-29T01:23:46.610Z,4.40
2019-05-29T01:24:50.053Z,4.58
2019-05-29T01:25:54.150Z,5.08
2019-05-29T01:26:57.694Z,4.80
2019-05-29T01:28:01.810Z,4.40
2019-05-29T01:29:05.317Z,4.72
2019-05-29T01:30:09.757Z,4.53
2019-05-29T01:31:13.631Z,4.83
2019-05-29T01:32:17.715Z,4.60
2019-05-29T01:33:24.561Z,5.15
2019-05-29T01:34:28.065Z,3.90
2019-05-29T01:35:31.605Z,4.85
2019-05-29T01:36:35.767Z,4.20
2019-05-29T01:37:39.246Z,5.20
2019-05-29T01:38:43.358Z,5.03
2019-05-29T01:39:47.578Z,5.22
2019-05-29T01:40:51.602Z,5.03
2019-05-29T01:41:55.056Z,4.87
2019-05-29T01:42:59.175Z,5.00
2019-05-29T01:44:02.790Z,5.25
2019-05-29T01:45:08.856Z,5.15
2019-05-29T01:46:12.377Z,4.47
2019-05-29T01:47:17.404Z,4.70
2019-05-29T01:48:21.598Z,4.28
2019-05-29T01:49:25.824Z,5.33
2019-05-29T01:50:29.412Z,5.10
2019-05-29T01:51:33.195Z,4.45
2019-05-29T01:52:36.650Z,4.75
2019-05-29T01:53:40.758Z,4.67
2019-05-29T01:54:44.340Z,4.40
2019-05-29T01:55:48.439Z,5.28
2019-05-29T01:56:51.961Z,4.92
2019-05-29T01:57:55.986Z,4.87
2019-05-29T01:58:59.446Z,4.90
2019-05-29T02:00:03.856Z,4.95
2019-05-29T02:01:07.554Z,4.75
2019-05-29T02:02:11.649Z,4.58
2019-05-29T02:03:15.789Z,4.47
2019-05-29T02:04:19.922Z,5.15
2019-05-29T02:05:24.123Z,5.17
2019-05-29T02:06:28.291Z,5.05
2019-05-29T02:07:31.771Z,5.20
2019-05-29T02:08:35.821Z,4.80
2019-05-29T02:09:39.892Z,4.50
2019-05-29T02:10:43.991Z,5.05
2019-05-29T02:11:47.433Z,5.75
2019-05-29T02:12:51.533Z,4.97
2019-05-29T02:13:54.997Z,4.85
2019-05-29T02:14:59.034Z,4.87
2019-05-29T02:16:02.543Z,5.62
2019-05-29T02:17:06.711Z,5.40
2019-05-29T02:18:10.168Z,5.50
2019-05-29T02:19:14.227Z,5.55
2019-05-29T02:20:18.987Z,5.47
2019-05-29T02:21:24.163Z,4.90
2019-05-29T02:22:27.632Z,5.15
2019-05-29T02:23:31.730Z,5.42
2019-05-29T02:24:35.289Z,4.70
2019-05-29T02:25:39.366Z,5.17
2019-05-29T02:26:42.984Z,5.80
2019-05-29T02:27:47.003Z,5.87
2019-05-29T02:28:50.462Z,5.12
2019-05-29T02:29:54.608Z,5.75
2019-05-29T02:30:58.119Z,5.28
2019-05-29T02:32:02.277Z,5.35
2019-05-29T02:33:05.853Z,5.90
2019-05-29T02:34:09.956Z,6.08
2019-05-29T02:35:13.764Z,6.03
2019-05-29T02:36:18.042Z,5.65
2019-05-29T02:37:22.261Z,6.08
2019-05-29T02:38:27.183Z,5.47
2019-05-29T02:39:31.356Z,6.53
2019-05-29T02:40:35.577Z,6.30
2019-05-29T02:41:39.335Z,6.45
2019-05-29T02:42:43.393Z,6.35
2019-05-29T02:43:46.839Z,5.50
2019-05-29T02:44:50.939Z,5.47
2019-05-29T02:45:55.436Z,6.37
2019-05-29T02:46:59.612Z,5.85
2019-05-29T02:48:03.132Z,6.37
2019-05-29T02:49:08.126Z,5.85
2019-05-29T02:50:11.730Z,5.75
2019-05-29T02:51:15.861Z,6.42
2019-05-29T02:52:20.097Z,5.70
2019-05-29T02:53:24.546Z,6.15
2019-05-29T02:54:30.005Z,5.80
2019-05-29T02:55:33.849Z,6.37
2019-05-29T02:56:37.380Z,6.28
2019-05-29T02:57:41.455Z,6.25
2019-05-29T02:58:45.216Z,5.75
2019-05-29T02:59:49.498Z,6.80
2019-05-29T03:00:54.693Z,6.75
2019-05-29T03:01:58.823Z,7.25
2019-05-29T03:03:02.374Z,6.60
2019-05-29T03:04:06.489Z,6.90
2019-05-29T03:05:10.401Z,6.80
2019-05-29T03:06:14.743Z,6.35
2019-05-29T03:07:18.365Z,6.65
2019-05-29T03:08:24.638Z,7.35
2019-05-29T03:09:28.440Z,7.72
2019-05-29T03:10:33.165Z,8.35
2019-05-29T03:11:36.723Z,7.70
2019-05-29T03:12:40.828Z,7.28
2019-05-29T03:13:44.394Z,7.50
2019-05-29T03:14:48.424Z,7.08
2019-05-29T03:16:08.619Z,7.85
2019-05-29T03:16:59.222Z,7.62
2019-05-29T03:18:02.726Z,7.65
2019-05-29T03:19:06.774Z,8.40
2019-05-29T03:20:10.568Z,7.55
2019-05-29T03:21:14.691Z,8.65
2019-05-29T03:22:18.110Z,7.97
2019-05-29T03:23:21.955Z,8.58
2019-05-29T03:24:26.666Z,8.43
2019-05-29T03:25:32.486Z,7.95
2019-05-29T03:26:36.202Z,7.75
2019-05-29T03:27:40.276Z,7.83
2019-05-29T03:28:43.837Z,8.70
2019-05-29T03:29:47.930Z,8.33
2019-05-29T03:30:51.544Z,8.23
2019-05-29T03:31:55.678Z,7.50
2019-05-29T03:32:59.109Z,8.45
2019-05-29T03:34:03.253Z,8.00
2019-05-29T03:35:07.118Z,8.73
2019-05-29T03:36:11.289Z,8.38
2019-05-29T03:37:14.826Z,8.75
2019-05-29T03:38:18.858Z,8.45
2019-05-29T03:39:22.302Z,8.28
2019-05-29T03:40:27.125Z,8.20
2019-05-29T03:41:32.737Z,8.33
2019-05-29T03:42:39.063Z,8.58
2019-05-29T03:43:42.567Z,8.50
2019-05-29T03:44:46.599Z,9.70
2019-05-29T03:45:50.120Z,8.48
2019-05-29T03:46:54.165Z,8.40
2019-05-29T03:47:57.633Z,8.15
2019-05-29T03:49:01.669Z,8.30
2019-05-29T03:50:08.130Z,8.00
2019-05-29T03:51:12.237Z,9.05
2019-05-29T03:52:15.838Z,8.60
2019-05-29T03:53:19.890Z,8.65
2019-05-29T03:54:23.421Z,8.55
2019-05-29T03:55:29.120Z,8.65
2019-05-29T03:56:34.644Z,8.90
2019-05-29T03:57:38.685Z,8.85
2019-05-29T03:58:42.128Z,8.85
2019-05-29T03:59:46.227Z,8.35
2019-05-29T04:00:49.946Z,9.38
2019-05-29T04:01:53.952Z,8.78
2019-05-29T04:02:57.470Z,9.00
2019-05-29T04:04:01.500Z,8.68
2019-05-29T04:05:06.500Z,9.10
2019-05-29T04:06:10.604Z,9.10
2019-05-29T04:07:14.070Z,8.68
2019-05-29T04:08:18.108Z,8.10
2019-05-29T04:09:21.556Z,9.63
2019-05-29T04:10:32.955Z,8.93
2019-05-29T04:11:37.927Z,8.60
2019-05-29T04:12:42.422Z,8.28
2019-05-29T04:13:45.931Z,8.88
2019-05-29T04:14:50.137Z,8.85
2019-05-29T04:15:55.324Z,9.43
2019-05-29T04:17:02.041Z,8.75
2019-05-29T04:18:06.992Z,8.80
2019-05-29T04:19:12.885Z,9.85
2019-05-29T04:20:16.474Z,7.97
2019-05-29T04:21:21.954Z,8.80
2019-05-29T04:22:30.278Z,10.18
2019-05-29T04:23:36.266Z,8.93
2019-05-29T04:24:42.970Z,9.73
2019-05-29T04:25:49.327Z,9.03
2019-05-29T04:26:54.560Z,8.25
2019-05-29T04:28:00.146Z,9.25
2019-05-29T04:29:04.243Z,9.28
2019-05-29T04:30:08.708Z,9.00
2019-05-29T04:31:12.239Z,9.25
2019-05-29T04:32:16.369Z,9.38
2019-05-29T04:33:19.824Z,9.50
2019-05-29T04:34:23.863Z,10.32
2019-05-29T04:35:28.286Z,9.68
2019-05-29T04:36:32.891Z,9.65
2019-05-29T04:37:37.648Z,8.83
2019-05-29T04:38:42.727Z,10.05
2019-05-29T04:39:46.243Z,10.15
2019-05-29T04:40:50.346Z,9.50
2019-05-29T04:41:53.884Z,9.38
2019-05-29T04:42:57.952Z,9.78
2019-05-29T04:44:01.397Z,9.40
2019-05-29T04:45:08.699Z,8.60
2019-05-29T04:46:12.313Z,8.85
2019-05-29T04:47:16.335Z,8.80
2019-05-29T04:48:19.899Z,9.65
2019-05-29T04:49:24.015Z,10.35
2019-05-29T04:50:29.016Z,9.00
2019-05-29T04:51:33.339Z,8.95
2019-05-29T04:52:37.904Z,9.00
2019-05-29T04:53:42.753Z,9.50
2019-05-29T04:54:46.291Z,9.05
2019-05-29T04:55:50.391Z,9.18
2019-05-29T04:56:53.846Z,9.15
2019-05-29T04:57:58.070Z,8.85
2019-05-29T04:59:01.586Z,9.55
2019-05-29T05:00:07.263Z,10.35
2019-05-29T05:01:10.727Z,8.95
2019-05-29T05:02:16.752Z,9.15
2019-05-29T05:03:19.924Z,8.55
2019-05-29T05:04:24.058Z,10.10
2019-05-29T05:05:27.508Z,9.38
2019-05-29T05:06:31.597Z,10.32
2019-05-29T05:07:35.391Z,9.98
2019-05-29T05:08:39.764Z,9.78
2019-05-29T05:09:43.564Z,10.50
2019-05-29T05:10:47.746Z,10.48
2019-05-29T05:11:51.718Z,10.32
2019-05-29T05:12:55.767Z,9.95
2019-05-29T05:14:01.581Z,10.13
2019-05-29T05:15:06.206Z,10.85
2019-05-29T05:16:09.682Z,10.53
2019-05-29T05:17:25.650Z,9.55
2019-05-29T05:18:19.090Z,10.45
2019-05-29T05:19:23.229Z,10.45
2019-05-29T05:20:26.674Z,9.95
2019-05-29T05:21:31.876Z,8.90
2019-05-29T05:22:36.361Z,9.65
2019-05-29T05:23:40.776Z,9.00
2019-05-29T05:24:44.337Z,9.45
2019-05-29T05:25:48.368Z,9.65
2019-05-29T05:26:51.903Z,8.88
2019-05-29T05:27:55.933Z,10.45
2019-05-29T05:28:59.409Z,10.30
2019-05-29T05:30:03.592Z,9.65
2019-05-29T05:31:07.042Z,9.73
2019-05-29T05:32:11.080Z,10.00
2019-05-29T05:33:14.538Z,10.15
2019-05-29T05:34:18.598Z,10.03
2019-05-29T05:35:22.132Z,10.45
2019-05-29T05:36:26.160Z,9.28
2019-05-29T05:37:30.620Z,10.15
2019-05-29T05:38:34.735Z,8.88
2019-05-29T05:39:39.069Z,9.15
2019-05-29T05:40:43.403Z,10.03
2019-05-29T05:41:47.018Z,9.00
2019-05-29T05:42:51.124Z,9.13
2019-05-29T05:43:54.642Z,10.68
2019-05-29T05:44:58.719Z,10.08
2019-05-29T05:46:02.201Z,9.23
2019-05-29T05:47:06.307Z,8.75
2019-05-29T05:48:09.748Z,7.97
2019-05-29T05:49:13.866Z,9.73
2019-05-29T05:50:17.662Z,7.72
2019-05-29T05:51:21.690Z,7.40
2019-05-29T05:52:25.225Z,8.35
2019-05-29T05:53:29.261Z,8.95
2019-05-29T05:54:33.393Z,8.18
2019-05-29T05:55:37.728Z,7.97
2019-05-29T05:56:41.808Z,8.80
2019-05-29T05:57:45.997Z,8.15
2019-05-29T05:58:49.428Z,8.48
2019-05-29T05:59:53.489Z,9.15
2019-05-29T06:00:56.997Z,9.03
2019-05-29T06:02:01.393Z,9.30
2019-05-29T06:03:05.934Z,9.60
2019-05-29T06:04:10.217Z,10.55
2019-05-29T06:05:14.327Z,9.60
2019-05-29T06:06:18.300Z,8.78
2019-05-29T06:07:22.062Z,8.43
2019-05-29T06:08:26.044Z,7.60
2019-05-29T06:09:29.831Z,8.78
2019-05-29T06:10:34.164Z,8.20
2019-05-29T06:11:38.332Z,7.97
2019-05-29T06:12:42.847Z,8.05
2019-05-29T06:13:46.562Z,8.30
2019-05-29T06:14:50.944Z,8.75
2019-05-29T06:15:54.672Z,9.13
2019-05-29T06:16:58.913Z,8.43
2019-05-29T06:18:20.013Z,8.28
2019-05-29T06:19:08.516Z,7.85
2019-05-29T06:20:12.413Z,8.90
2019-05-29T06:21:16.569Z,8.68
2019-05-29T06:22:20.092Z,6.58
2019-05-29T06:23:24.668Z,8.33
2019-05-29T06:24:28.391Z,8.48
2019-05-29T06:25:33.915Z,8.03
2019-05-29T06:26:38.882Z,7.85
2019-05-29T06:27:43.434Z,9.13
2019-05-29T06:28:46.901Z,9.43
2019-05-29T06:29:51.034Z,9.98
2019-05-29T06:30:54.674Z,9.50
2019-05-29T06:31:58.808Z,9.63
2019-05-29T06:33:02.252Z,9.05
2019-05-29T06:34:06.378Z,9.23
2019-05-29T06:35:10.089Z,9.40
2019-05-29T06:36:14.241Z,8.40
2019-05-29T06:37:17.701Z,8.60
2019-05-29T06:38:21.732Z,8.65
2019-05-29T06:39:25.201Z,9.70
2019-05-29T06:40:42.099Z,10.50
2019-05-29T06:41:45.753Z,9.58
2019-05-29T06:42:49.866Z,8.60
2019-05-29T06:43:53.323Z,7.75
2019-05-29T06:44:58.409Z,8.40
2019-05-29T06:46:02.123Z,8.80
2019-05-29T06:47:06.163Z,8.35
2019-05-29T06:48:09.794Z,8.83
2019-05-29T06:49:13.910Z,8.90
2019-05-29T06:50:17.531Z,8.40
2019-05-29T06:51:21.575Z,10.38
2019-05-29T06:52:25.113Z,8.90
2019-05-29T06:53:29.328Z,8.45
2019-05-29T06:54:32.841Z,10.78
2019-05-29T06:55:37.919Z,13.58
2019-05-29T06:56:41.769Z,8.90
2019-05-29T06:57:45.764Z,11.70
2019-05-29T06:58:49.245Z,13.18
2019-05-29T06:59:53.276Z,12.35
2019-05-29T07:00:56.859Z,11.00
2019-05-29T07:02:00.948Z,8.80
2019-05-29T07:03:04.640Z,8.98
2019-05-29T07:04:12.318Z,9.03
2019-05-29T07:05:14.084Z,9.13
2019-05-29T07:06:18.285Z,8.48
2019-05-29T07:07:21.799Z,8.28
2019-05-29T07:08:38.414Z,8.65
2019-05-29T07:09:31.074Z,8.58
2019-05-29T07:10:36.418Z,7.72
2019-05-29T07:11:41.247Z,8.05
2019-05-29T07:12:46.485Z,8.73
2019-05-29T07:13:50.709Z,8.05
2019-05-29T07:14:54.976Z,7.25
2019-05-29T07:15:58.566Z,7.90
2019-05-29T07:17:02.603Z,8.00
2019-05-29T07:18:06.059Z,8.65
2019-05-29T07:19:24.794Z,7.17
2019-05-29T07:20:15.912Z,8.30
2019-05-29T07:21:20.039Z,7.75
2019-05-29T07:22:23.666Z,8.00
2019-05-29T07:23:27.729Z,7.25
2019-05-29T07:24:31.535Z,8.15
2019-05-29T07:25:36.810Z,7.40
2019-05-29T07:26:41.069Z,6.80
2019-05-29T07:27:45.182Z,7.05
2019-05-29T07:29:07.320Z,7.53
2019-05-29T07:29:54.391Z,7.50
2019-05-29T07:31:02.645Z,6.60
2019-05-29T07:32:03.717Z,7.62
2019-05-29T07:33:07.261Z,6.87
2019-05-29T07:34:11.265Z,7.50
2019-05-29T07:35:15.711Z,7.35
2019-05-29T07:36:19.841Z,6.78
2019-05-29T07:37:23.301Z,7.60
2019-05-29T07:38:27.336Z,7.50
2019-05-29T07:39:30.790Z,7.00
2019-05-29T07:40:35.966Z,7.58
2019-05-29T07:41:39.670Z,6.85
2019-05-29T07:42:49.775Z,6.97
2019-05-29T07:43:48.925Z,7.03
2019-05-29T07:44:53.099Z,6.85
2019-05-29T07:45:56.599Z,8.03
2019-05-29T07:47:01.998Z,7.20
2019-05-29T07:48:05.788Z,7.60
2019-05-29T07:49:09.843Z,7.62
2019-05-29T07:50:13.506Z,7.83
2019-05-29T07:51:17.562Z,7.20
2019-05-29T07:52:21.157Z,7.05
2019-05-29T07:53:25.198Z,7.08
2019-05-29T07:54:28.732Z,6.47
2019-05-29T07:55:32.834Z,6.37
2019-05-29T07:56:36.334Z,7.05
2019-05-29T07:57:40.873Z,6.58
2019-05-29T07:58:56.731Z,6.62
2019-05-29T07:59:50.348Z,6.45
2019-05-29T08:01:11.722Z,6.95
2019-05-29T08:01:59.785Z,6.45
2019-05-29T08:03:03.384Z,7.55
2019-05-29T08:04:07.508Z,6.65
2019-05-29T08:05:11.379Z,6.50
2019-05-29T08:06:15.684Z,7.17
2019-05-29T08:07:19.169Z,6.95
2019-05-29T08:08:23.216Z,5.90
2019-05-29T08:09:26.707Z,6.70
2019-05-29T08:10:30.802Z,5.95
2019-05-29T08:11:34.342Z,5.97
2019-05-29T08:12:43.883Z,5.92
2019-05-29T08:13:43.826Z,5.10
2019-05-29T08:14:47.978Z,5.55
2019-05-29T08:16:01.830Z,5.53
2019-05-29T08:16:57.201Z,5.15
2019-05-29T08:18:00.692Z,5.37
2019-05-29T08:19:07.982Z,6.30
2019-05-29T08:20:10.304Z,6.17
2019-05-29T08:21:14.465Z,5.75
2019-05-29T08:22:33.354Z,5.20
2019-05-29T08:23:23.730Z,5.30
2019-05-29T08:24:27.431Z,5.85
2019-05-29T08:25:31.916Z,5.70
2019-05-29T08:26:35.362Z,5.45
2019-05-29T08:27:40.577Z,5.60
2019-05-29T08:28:44.777Z,5.72
2019-05-29T08:29:48.966Z,5.78
2019-05-29T08:30:56.184Z,5.67
2019-05-29T08:31:58.290Z,6.35
2019-05-29T08:33:01.731Z,6.12
2019-05-29T08:34:05.888Z,5.70
2019-05-29T08:35:09.472Z,5.55
2019-05-29T08:36:13.562Z,5.78
2019-05-29T08:37:17.082Z,6.72
2019-05-29T08:38:21.129Z,5.67
2019-05-29T08:39:35.134Z,6.35
2019-05-29T08:40:30.210Z,6.25
2019-05-29T08:41:33.803Z,6.00
2019-05-29T08:42:38.182Z,5.40
2019-05-29T08:43:42.489Z,5.75
2019-05-29T08:44:47.975Z,6.03
2019-05-29T08:45:52.645Z,5.83
2019-05-29T08:47:09.065Z,5.40
2019-05-29T08:48:02.021Z,4.80
2019-05-29T08:49:06.132Z,5.58
2019-05-29T08:50:18.168Z,5.15
2019-05-29T08:51:15.478Z,5.30
2019-05-29T08:52:18.991Z,5.58
2019-05-29T08:53:23.182Z,4.90
2019-05-29T08:54:26.674Z,4.87
2019-05-29T08:55:30.730Z,5.20
2019-05-29T08:56:34.312Z,5.47
2019-05-29T08:57:38.491Z,5.72
2019-05-29T08:58:42.883Z,4.85
2019-05-29T08:59:46.977Z,5.47
2019-05-29T09:00:54.782Z,4.95
2019-05-29T09:01:56.350Z,5.85
2019-05-29T09:02:59.863Z,5.12
2019-05-29T09:04:04.140Z,4.65
2019-05-29T09:05:08.156Z,4.83
2019-05-29T09:06:13.671Z,5.15
2019-05-29T09:07:17.416Z,5.10
2019-05-29T09:08:21.476Z,5.70
2019-05-29T09:09:25.069Z,5.87
2019-05-29T09:10:29.169Z,5.03
2019-05-29T09:11:32.625Z,6.28
2019-05-29T09:12:36.657Z,5.60
2019-05-29T09:13:40.171Z,5.85
2019-05-29T09:14:44.283Z,5.28
2019-05-29T09:15:47.815Z,5.83
2019-05-29T09:16:51.976Z,5.22
2019-05-29T09:17:55.565Z,5.05
2019-05-29T09:18:59.583Z,5.15
2019-05-29T09:20:03.348Z,4.95
2019-05-29T09:21:08.979Z,7.00
2019-05-29T09:22:13.853Z,7.70
2019-05-29T09:23:18.927Z,7.97
2019-05-29T09:24:23.078Z,7.15
2019-05-29T09:25:27.792Z,6.28
2019-05-29T09:26:31.330Z,6.10
2019-05-29T09:27:35.379Z,5.45
2019-05-29T09:28:38.821Z,5.45
2019-05-29T09:29:42.899Z,5.42
2019-05-29T09:30:46.466Z,4.90
2019-05-29T09:31:50.497Z,6.08
2019-05-29T09:32:57.107Z,5.10
2019-05-29T09:34:01.270Z,5.17
2019-05-29T09:35:05.173Z,6.00
2019-05-29T09:36:09.425Z,5.62
2019-05-29T09:37:14.186Z,6.05
2019-05-29T09:38:18.953Z,6.08
2019-05-29T09:39:22.819Z,6.12
2019-05-29T09:40:26.994Z,5.85
2019-05-29T09:41:30.441Z,5.90
2019-05-29T09:42:34.484Z,5.65
2019-05-29T09:43:38.008Z,5.75
2019-05-29T09:44:42.147Z,5.60
2019-05-29T09:45:46.272Z,5.75
2019-05-29T09:46:50.368Z,5.87
2019-05-29T09:47:53.903Z,6.62
2019-05-29T09:49:01.320Z,6.50
2019-05-29T09:50:04.832Z,5.58
2019-05-29T09:51:20.678Z,5.33
2019-05-29T09:52:14.133Z,5.37
2019-05-29T09:53:18.302Z,5.62
2019-05-29T09:54:21.870Z,5.85
2019-05-29T09:55:26.042Z,5.35
2019-05-29T09:56:29.503Z,5.92
2019-05-29T09:57:33.574Z,5.70
2019-05-29T09:58:37.085Z,5.30
2019-05-29T09:59:41.128Z,5.20
2019-05-29T10:00:44.792Z,6.72
2019-05-29T10:01:48.821Z,5.08
2019-05-29T10:02:52.827Z,4.22
2019-05-29T10:04:00.020Z,4.90
2019-05-29T10:05:04.169Z,4.17
2019-05-29T10:06:09.455Z,4.45
2019-05-29T10:07:13.056Z,4.08
2019-05-29T10:08:17.203Z,4.62
2019-05-29T10:09:20.764Z,4.83
2019-05-29T10:10:25.239Z,5.40
2019-05-29T10:11:28.945Z,4.80
2019-05-29T10:12:32.967Z,5.30
2019-05-29T10:13:36.404Z,4.85
2019-05-29T10:14:40.515Z,4.72
2019-05-29T10:15:44.129Z,4.25
2019-05-29T10:16:49.048Z,4.95
2019-05-29T10:17:52.561Z,4.65
2019-05-29T10:18:58.497Z,4.60
2019-05-29T10:20:03.285Z,4.67
2019-05-29T10:21:07.495Z,4.17
2019-05-29T10:22:10.978Z,4.33
2019-05-29T10:23:15.005Z,4.60
2019-05-29T10:24:18.457Z,4.62
2019-05-29T10:25:22.363Z,5.12
2019-05-29T10:26:25.878Z,4.45
2019-05-29T10:27:29.998Z,4.45
2019-05-29T10:28:49.905Z,4.20
2019-05-29T10:29:39.199Z,4.15
2019-05-29T10:30:44.258Z,4.35
2019-05-29T10:31:49.798Z,4.58
2019-05-29T10:32:53.919Z,4.90
2019-05-29T10:33:58.062Z,4.65
2019-05-29T10:35:01.579Z,4.60
2019-05-29T10:36:05.882Z,5.17
2019-05-29T10:37:09.341Z,4.87
2019-05-29T10:38:13.544Z,4.33
2019-05-29T10:39:17.059Z,5.03
2019-05-29T10:40:21.801Z,4.78
2019-05-29T10:41:25.246Z,5.05
2019-05-29T10:42:29.340Z,4.60
2019-05-29T10:43:34.559Z,4.37
2019-05-29T10:44:38.623Z,5.30
2019-05-29T10:45:43.453Z,5.30
2019-05-29T10:46:50.005Z,7.67
2019-05-29T10:47:54.091Z,6.30
2019-05-29T10:48:58.214Z,6.62
2019-05-29T10:50:01.889Z,5.60
2019-05-29T10:51:06.140Z,5.00
2019-05-29T10:52:15.534Z,4.67
2019-05-29T10:53:15.592Z,4.72
2019-05-29T10:54:19.198Z,4.72
2019-05-29T10:55:24.394Z,4.40
2019-05-29T10:56:27.820Z,4.58
2019-05-29T10:57:31.851Z,4.37
2019-05-29T10:58:48.409Z,4.30
2019-05-29T10:59:41.161Z,4.25
2019-05-29T11:00:45.412Z,4.15
2019-05-29T11:01:49.506Z,3.85
2019-05-29T11:02:55.451Z,4.08
2019-05-29T11:03:59.098Z,3.98
2019-05-29T11:05:02.660Z,3.70
2019-05-29T11:06:06.849Z,3.72
2019-05-29T11:07:10.375Z,3.58
2019-05-29T11:08:14.399Z,3.90
2019-05-29T11:09:17.940Z,4.58
2019-05-29T11:10:22.803Z,3.70
2019-05-29T11:11:26.254Z,4.33
2019-05-29T11:12:30.420Z,3.65
2019-05-29T11:13:34.011Z,4.25
2019-05-29T11:14:39.380Z,4.75
2019-05-29T11:15:42.953Z,4.35
2019-05-29T11:16:47.077Z,6.05
2019-05-29T11:17:51.419Z,7.20
2019-05-29T11:18:55.788Z,9.10
2019-05-29T11:19:59.584Z,7.10
2019-05-29T11:21:03.600Z,6.83
2019-05-29T11:22:25.263Z,6.08
2019-05-29T11:23:13.034Z,4.80
2019-05-29T11:24:16.532Z,5.95
2019-05-29T11:25:26.744Z,5.58
2019-05-29T11:26:26.673Z,12.25
2019-05-29T11:27:30.948Z,8.80
2019-05-29T11:28:34.496Z,7.90
2019-05-29T11:29:38.530Z,8.25
2019-05-29T11:30:41.993Z,6.92
2019-05-29T11:31:46.025Z,4.55
2019-05-29T11:32:52.545Z,4.37
2019-05-29T11:33:57.146Z,4.90
2019-05-29T11:35:02.243Z,4.62
2019-05-29T11:36:12.348Z,3.35
2019-05-29T11:37:11.736Z,4.25
2019-05-29T11:38:15.838Z,3.80
2019-05-29T11:39:19.447Z,3.65
2019-05-29T11:40:23.636Z,3.50
2019-05-29T11:41:27.191Z,3.40
2019-05-29T11:42:31.354Z,3.00
2019-05-29T11:43:34.868Z,3.15
2019-05-29T11:44:40.397Z,3.70
2019-05-29T11:45:43.922Z,2.98
2019-05-29T11:46:48.196Z,3.02
2019-05-29T11:47:53.703Z,3.02
2019-05-29T11:48:57.494Z,3.25
2019-05-29T11:50:16.191Z,2.92
2019-05-29T11:51:06.991Z,2.70
2019-05-29T11:52:23.556Z,2.98
2019-05-29T11:53:16.401Z,2.35
2019-05-29T11:54:20.001Z,5.30
2019-05-29T11:55:24.175Z,17.15
2019-05-29T11:56:27.670Z,14.85
2019-05-29T11:57:31.775Z,37.20
2019-05-29T11:58:35.286Z,8.40
2019-05-29T11:59:39.392Z,13.50
2019-05-29T12:00:43.119Z,17.82
2019-05-29T12:01:50.712Z,6.97
2019-05-29T12:02:53.922Z,4.20
2019-05-29T12:04:18.700Z,3.60
2019-05-29T12:05:05.832Z,3.17
2019-05-29T12:06:10.038Z,2.85
2019-05-29T12:07:13.624Z,3.02
2019-05-29T12:08:17.648Z,3.10
2019-05-29T12:09:31.915Z,4.35
2019-05-29T12:10:27.177Z,4.10
2019-05-29T12:11:30.624Z,3.92
2019-05-29T12:12:34.725Z,3.83
2019-05-29T12:13:39.395Z,3.15
2019-05-29T12:14:58.966Z,3.10
2019-05-29T12:15:48.709Z,2.70
2019-05-29T12:16:54.177Z,3.12
2019-05-29T12:18:19.099Z,3.10
2019-05-29T12:19:03.781Z,3.50
2019-05-29T12:20:26.401Z,2.90
2019-05-29T12:21:13.905Z,3.50
2019-05-29T12:22:17.481Z,2.90
2019-05-29T12:23:26.151Z,2.80
2019-05-29T12:24:26.699Z,3.00
2019-05-29T12:25:30.878Z,3.62
2019-05-29T12:26:34.313Z,3.15
2019-05-29T12:27:38.357Z,3.65
2019-05-29T12:28:41.857Z,2.90
2019-05-29T12:29:45.922Z,4.15
2019-05-29T12:30:49.537Z,3.20
2019-05-29T12:31:54.825Z,3.37
2019-05-29T12:32:59.167Z,3.75
2019-05-29T12:34:13.106Z,3.60
2019-05-29T12:35:09.365Z,4.65
2019-05-29T12:36:13.599Z,3.45
2019-05-29T12:37:18.687Z,3.52
2019-05-29T12:38:22.708Z,4.55
2019-05-29T12:39:26.319Z,3.70
2019-05-29T12:40:30.421Z,3.92
2019-05-29T12:41:36.592Z,8.28
2019-05-29T12:42:44.617Z,6.92
2019-05-29T12:43:47.302Z,4.62
2019-05-29T12:44:51.445Z,3.77
2019-05-29T12:45:55.659Z,4.30
2019-05-29T12:46:59.866Z,4.28
2019-05-29T12:48:11.101Z,4.45
2019-05-29T12:49:09.649Z,3.75
2019-05-29T12:50:15.188Z,3.83
2019-05-29T12:51:19.286Z,3.50
2019-05-29T12:52:22.824Z,3.55
2019-05-29T12:53:30.774Z,3.80
2019-05-29T12:54:32.233Z,3.85
2019-05-29T12:55:36.493Z,3.77
2019-05-29T12:56:39.910Z,4.47
2019-05-29T12:57:44.013Z,3.65
2019-05-29T12:58:47.600Z,3.30
2019-05-29T12:59:51.718Z,4.33
2019-05-29T13:00:56.417Z,4.90
2019-05-29T13:02:00.677Z,10.88
2019-05-29T13:03:05.330Z,5.58
2019-05-29T13:04:09.578Z,9.35
2019-05-29T13:05:20.171Z,11.18
2019-05-29T13:06:20.936Z,8.90
2019-05-29T13:07:24.542Z,11.90
2019-05-29T13:08:28.580Z,8.13
2019-05-29T13:09:32.164Z,6.92
2019-05-29T13:10:36.345Z,6.85
2019-05-29T13:11:39.894Z,6.37
2019-05-29T13:12:44.211Z,5.22
2019-05-29T13:13:47.816Z,5.72
2019-05-29T13:14:51.874Z,6.28
2019-05-29T13:15:56.609Z,6.58
2019-05-29T13:17:03.029Z,10.55
2019-05-29T13:18:10.182Z,7.30
2019-05-29T13:19:12.809Z,6.80
2019-05-29T13:20:21.821Z,4.83
2019-05-29T13:21:22.587Z,4.12
2019-05-29T13:22:26.039Z,4.45
2019-05-29T13:23:44.313Z,5.00
2019-05-29T13:24:35.256Z,4.80
2019-05-29T13:25:39.369Z,5.85
2019-05-29T13:26:43.010Z,4.90
2019-05-29T13:27:47.038Z,5.10
2019-05-29T13:28:50.482Z,5.10
2019-05-29T13:29:58.129Z,5.53
2019-05-29T13:30:59.849Z,5.50
2019-05-29T13:32:05.392Z,5.28
2019-05-29T13:33:09.379Z,5.40
2019-05-29T13:34:13.527Z,4.70
2019-05-29T13:35:21.878Z,5.42
2019-05-29T13:36:24.118Z,5.10
2019-05-29T13:37:27.594Z,5.22
2019-05-29T13:38:31.710Z,5.65
2019-05-29T13:39:35.196Z,5.53
2019-05-29T13:40:39.366Z,5.75
2019-05-29T13:41:42.828Z,5.75
2019-05-29T13:42:46.929Z,5.75
2019-05-29T13:43:50.468Z,6.00
2019-05-29T13:44:54.741Z,5.40
2019-05-29T13:45:58.436Z,6.12
2019-05-29T13:47:04.087Z,5.97
2019-05-29T13:48:07.730Z,7.12
2019-05-29T13:49:11.800Z,11.40
2019-05-29T13:50:15.576Z,12.00
2019-05-29T13:51:19.707Z,10.50
2019-05-29T13:52:23.170Z,10.45
2019-05-29T13:53:27.297Z,6.15
2019-05-29T13:54:30.746Z,6.20
2019-05-29T13:55:34.845Z,6.03
2019-05-29T13:56:38.299Z,5.70
2019-05-29T13:57:42.398Z,6.08
2019-05-29T13:58:45.849Z,5.75
2019-05-29T13:59:50.007Z,5.95
2019-05-29T14:00:54.073Z,5.80
2019-05-29T14:01:58.500Z,6.05
2019-05-29T14:03:02.634Z,5.45
2019-05-29T14:04:06.962Z,5.00
2019-05-29T14:05:10.885Z,6.08
2019-05-29T14:06:15.029Z,5.55
2019-05-29T14:07:18.470Z,5.80
2019-05-29T14:08:22.252Z,5.58
2019-05-29T14:09:25.678Z,5.80
2019-05-29T14:10:29.787Z,5.47
2019-05-29T14:11:33.304Z,6.78
2019-05-29T14:12:40.508Z,5.22